sensor_id;sensor_type;location;lat;lon;timestamp;temperature;humidity
74488;DHT22;63019;51.080;13.642;2023-03-23T00:00:36;13.50;97.50
74488;DHT22;63019;51.080;13.642;2023-03-23T00:01:36;13.60;97.30
74488;DHT22;63019;51.080;13.642;2023-03-23T00:02:37;13.60;97.10
74488;DHT22;63019;51.080;13.642;2023-03-23T00:03:39;13.70;96.90
74488;DHT22;63019;51.080;13.642;2023-03-23T00:04:40;13.60;96.60
74488;DHT22;63019;51.080;13.642;2023-03-23T00:05:43;13.70;96.70
74488;DHT22;63019;51.080;13.642;2023-03-23T00:06:50;13.70;96.20
74488;DHT22;63019;51.080;13.642;2023-03-23T00:07:51;13.80;96.00
74488;DHT22;63019;51.080;13.642;2023-03-23T00:08:53;13.80;95.60
74488;DHT22;63019;51.080;13.642;2023-03-23T00:10:00;13.90;95.50
74488;DHT22;63019;51.080;13.642;2023-03-23T00:11:05;13.90;95.30
74488;DHT22;63019;51.080;13.642;2023-03-23T00:12:06;13.90;95.20
74488;DHT22;63019;51.080;13.642;2023-03-23T00:13:07;14.00;94.70
74488;DHT22;63019;51.080;13.642;2023-03-23T00:14:09;14.00;94.50
74488;DHT22;63019;51.080;13.642;2023-03-23T00:15:13;14.00;94.30
74488;DHT22;63019;51.080;13.642;2023-03-23T00:16:18;14.00;94.20
74488;DHT22;63019;51.080;13.642;2023-03-23T00:17:19;14.00;93.90
74488;DHT22;63019;51.080;13.642;2023-03-23T00:18:21;14.00;94.10
74488;DHT22;63019;51.080;13.642;2023-03-23T00:19:22;14.00;94.20
74488;DHT22;63019;51.080;13.642;2023-03-23T00:20:22;14.00;94.00
74488;DHT22;63019;51.080;13.642;2023-03-23T00:21:36;14.00;93.60
74488;DHT22;63019;51.080;13.642;2023-03-23T00:22:37;14.10;93.40
74488;DHT22;63019;51.080;13.642;2023-03-23T00:23:39;14.10;93.50
74488;DHT22;63019;51.080;13.642;2023-03-23T00:24:41;14.10;93.10
74488;DHT22;63019;51.080;13.642;2023-03-23T00:25:42;14.10;93.10
74488;DHT22;63019;51.080;13.642;2023-03-23T00:26:45;14.10;92.90
74488;DHT22;63019;51.080;13.642;2023-03-23T00:27:46;14.20;93.10
74488;DHT22;63019;51.080;13.642;2023-03-23T00:28:46;14.20;92.90
74488;DHT22;63019;51.080;13.642;2023-03-23T00:29:51;14.20;92.90
74488;DHT22;63019;51.080;13.642;2023-03-23T00:30:58;14.20;92.80
74488;DHT22;63019;51.080;13.642;2023-03-23T00:32:00;14.20;92.90
74488;DHT22;63019;51.080;13.642;2023-03-23T00:33:02;14.20;92.70
74488;DHT22;63019;51.080;13.642;2023-03-23T00:34:04;14.20;92.60
74488;DHT22;63019;51.080;13.642;2023-03-23T00:35:05;14.20;92.40
74488;DHT22;63019;51.080;13.642;2023-03-23T00:36:08;14.20;92.90
74488;DHT22;63019;51.080;13.642;2023-03-23T00:37:10;14.20;92.80
74488;DHT22;63019;51.080;13.642;2023-03-23T00:38:10;14.20;92.40
74488;DHT22;63019;51.080;13.642;2023-03-23T00:39:11;14.20;92.80
74488;DHT22;63019;51.080;13.642;2023-03-23T00:40:12;14.20;92.50
74488;DHT22;63019;51.080;13.642;2023-03-23T00:41:13;14.20;92.70
74488;DHT22;63019;51.080;13.642;2023-03-23T00:42:15;14.20;92.80
74488;DHT22;63019;51.080;13.642;2023-03-23T00:43:18;14.10;93.00
74488;DHT22;63019;51.080;13.642;2023-03-23T00:44:19;14.10;93.40
74488;DHT22;63019;51.080;13.642;2023-03-23T00:45:23;14.00;93.60
74488;DHT22;63019;51.080;13.642;2023-03-23T00:46:25;14.00;93.90
74488;DHT22;63019;51.080;13.642;2023-03-23T00:47:27;14.00;93.90
74488;DHT22;63019;51.080;13.642;2023-03-23T00:48:28;14.00;94.30
74488;DHT22;63019;51.080;13.642;2023-03-23T00:49:29;13.90;94.40
74488;DHT22;63019;51.080;13.642;2023-03-23T00:50:30;13.90;94.50
74488;DHT22;63019;51.080;13.642;2023-03-23T00:51:31;13.90;94.50
74488;DHT22;63019;51.080;13.642;2023-03-23T00:52:32;13.90;94.70
74488;DHT22;63019;51.080;13.642;2023-03-23T00:53:33;13.80;94.70
74488;DHT22;63019;51.080;13.642;2023-03-23T00:54:34;13.80;94.80
74488;DHT22;63019;51.080;13.642;2023-03-23T00:55:35;13.80;94.70
74488;DHT22;63019;51.080;13.642;2023-03-23T00:56:37;13.80;94.40
74488;DHT22;63019;51.080;13.642;2023-03-23T00:57:39;13.80;95.20
74488;DHT22;63019;51.080;13.642;2023-03-23T00:58:40;13.80;95.40
74488;DHT22;63019;51.080;13.642;2023-03-23T00:59:41;13.80;95.30
74488;DHT22;63019;51.080;13.642;2023-03-23T01:00:42;13.70;95.30
74488;DHT22;63019;51.080;13.642;2023-03-23T01:01:43;13.70;95.40
74488;DHT22;63019;51.080;13.642;2023-03-23T01:02:44;13.70;95.50
74488;DHT22;63019;51.080;13.642;2023-03-23T01:03:45;13.70;95.50
74488;DHT22;63019;51.080;13.642;2023-03-23T01:04:46;13.70;95.40
74488;DHT22;63019;51.080;13.642;2023-03-23T01:05:47;13.70;95.60
74488;DHT22;63019;51.080;13.642;2023-03-23T01:06:49;13.70;95.20
74488;DHT22;63019;51.080;13.642;2023-03-23T01:07:51;13.70;95.40
74488;DHT22;63019;51.080;13.642;2023-03-23T01:08:51;13.70;95.20
74488;DHT22;63019;51.080;13.642;2023-03-23T01:09:54;13.70;94.90
74488;DHT22;63019;51.080;13.642;2023-03-23T01:11:04;13.80;95.00
74488;DHT22;63019;51.080;13.642;2023-03-23T01:12:06;13.80;94.90
74488;DHT22;63019;51.080;13.642;2023-03-23T01:13:07;13.80;94.70
74488;DHT22;63019;51.080;13.642;2023-03-23T01:14:09;13.80;94.70
74488;DHT22;63019;51.080;13.642;2023-03-23T01:15:13;13.70;95.20
74488;DHT22;63019;51.080;13.642;2023-03-23T01:16:14;13.70;95.20
74488;DHT22;63019;51.080;13.642;2023-03-23T01:17:15;13.70;95.10
74488;DHT22;63019;51.080;13.642;2023-03-23T01:18:16;13.70;95.10
74488;DHT22;63019;51.080;13.642;2023-03-23T01:19:17;13.70;95.00
74488;DHT22;63019;51.080;13.642;2023-03-23T01:20:18;13.70;95.10
74488;DHT22;63019;51.080;13.642;2023-03-23T01:21:20;13.70;95.60
74488;DHT22;63019;51.080;13.642;2023-03-23T01:22:21;13.60;95.30
74488;DHT22;63019;51.080;13.642;2023-03-23T01:23:21;13.60;95.40
74488;DHT22;63019;51.080;13.642;2023-03-23T01:24:22;13.60;95.40
74488;DHT22;63019;51.080;13.642;2023-03-23T01:25:23;13.60;95.20
74488;DHT22;63019;51.080;13.642;2023-03-23T01:26:25;13.60;95.20
74488;DHT22;63019;51.080;13.642;2023-03-23T01:27:27;13.60;95.20
74488;DHT22;63019;51.080;13.642;2023-03-23T01:28:27;13.60;95.10
74488;DHT22;63019;51.080;13.642;2023-03-23T01:29:28;13.60;95.20
74488;DHT22;63019;51.080;13.642;2023-03-23T01:30:29;13.60;95.00
74488;DHT22;63019;51.080;13.642;2023-03-23T01:31:30;13.60;95.20
74488;DHT22;63019;51.080;13.642;2023-03-23T01:32:31;13.60;95.10
74488;DHT22;63019;51.080;13.642;2023-03-23T01:33:32;13.70;95.20
74488;DHT22;63019;51.080;13.642;2023-03-23T01:34:33;13.70;94.90
74488;DHT22;63019;51.080;13.642;2023-03-23T01:35:37;13.60;94.90
74488;DHT22;63019;51.080;13.642;2023-03-23T01:36:38;13.60;95.10
74488;DHT22;63019;51.080;13.642;2023-03-23T01:37:38;13.60;95.10
74488;DHT22;63019;51.080;13.642;2023-03-23T01:38:44;13.60;95.00
74488;DHT22;63019;51.080;13.642;2023-03-23T01:39:45;13.50;95.20
74488;DHT22;63019;51.080;13.642;2023-03-23T01:40:46;13.50;95.20
74488;DHT22;63019;51.080;13.642;2023-03-23T01:41:47;13.50;95.20
74488;DHT22;63019;51.080;13.642;2023-03-23T01:42:47;13.50;95.10
74488;DHT22;63019;51.080;13.642;2023-03-23T01:43:59;13.50;95.10
74488;DHT22;63019;51.080;13.642;2023-03-23T01:46:20;13.40;95.30
74488;DHT22;63019;51.080;13.642;2023-03-23T01:47:22;13.40;95.30
74488;DHT22;63019;51.080;13.642;2023-03-23T01:48:32;13.40;95.40
74488;DHT22;63019;51.080;13.642;2023-03-23T01:49:38;13.40;95.30
74488;DHT22;63019;51.080;13.642;2023-03-23T01:50:51;13.40;95.40
74488;DHT22;63019;51.080;13.642;2023-03-23T01:52:15;13.30;95.70
74488;DHT22;63019;51.080;13.642;2023-03-23T01:53:18;13.30;95.90
74488;DHT22;63019;51.080;13.642;2023-03-23T01:54:21;13.30;95.80
74488;DHT22;63019;51.080;13.642;2023-03-23T01:55:24;13.30;96.00
74488;DHT22;63019;51.080;13.642;2023-03-23T01:56:30;13.20;96.10
74488;DHT22;63019;51.080;13.642;2023-03-23T01:57:33;13.20;95.90
74488;DHT22;63019;51.080;13.642;2023-03-23T01:58:35;13.20;95.80
74488;DHT22;63019;51.080;13.642;2023-03-23T01:59:38;13.20;95.80
74488;DHT22;63019;51.080;13.642;2023-03-23T02:00:39;13.20;95.70
74488;DHT22;63019;51.080;13.642;2023-03-23T02:01:43;13.20;96.20
74488;DHT22;63019;51.080;13.642;2023-03-23T02:02:48;13.20;96.10
74488;DHT22;63019;51.080;13.642;2023-03-23T02:03:50;13.20;95.90
74488;DHT22;63019;51.080;13.642;2023-03-23T02:04:55;13.20;96.20
74488;DHT22;63019;51.080;13.642;2023-03-23T02:05:57;13.20;96.60
74488;DHT22;63019;51.080;13.642;2023-03-23T02:07:01;13.10;96.40
74488;DHT22;63019;51.080;13.642;2023-03-23T02:08:04;13.20;96.60
74488;DHT22;63019;51.080;13.642;2023-03-23T02:09:06;13.10;96.70
74488;DHT22;63019;51.080;13.642;2023-03-23T02:10:07;13.10;96.30
74488;DHT22;63019;51.080;13.642;2023-03-23T02:11:18;13.10;96.10
74488;DHT22;63019;51.080;13.642;2023-03-23T02:12:19;13.10;96.30
74488;DHT22;63019;51.080;13.642;2023-03-23T02:13:20;13.10;96.40
74488;DHT22;63019;51.080;13.642;2023-03-23T02:14:23;13.10;96.80
74488;DHT22;63019;51.080;13.642;2023-03-23T02:15:30;13.10;96.40
74488;DHT22;63019;51.080;13.642;2023-03-23T02:16:39;13.10;96.00
74488;DHT22;63019;51.080;13.642;2023-03-23T02:21:30;13.00;96.00
74488;DHT22;63019;51.080;13.642;2023-03-23T02:34:44;13.00;96.00
74488;DHT22;63019;51.080;13.642;2023-03-23T02:35:57;13.00;95.30
74488;DHT22;63019;51.080;13.642;2023-03-23T02:37:11;13.00;95.00
74488;DHT22;63019;51.080;13.642;2023-03-23T02:38:17;13.00;95.40
74488;DHT22;63019;51.080;13.642;2023-03-23T02:39:25;13.00;95.40
74488;DHT22;63019;51.080;13.642;2023-03-23T02:40:49;13.00;95.40
74488;DHT22;63019;51.080;13.642;2023-03-23T02:42:05;13.00;94.70
74488;DHT22;63019;51.080;13.642;2023-03-23T02:43:09;13.00;95.40
74488;DHT22;63019;51.080;13.642;2023-03-23T02:44:12;13.00;95.00
74488;DHT22;63019;51.080;13.642;2023-03-23T02:45:14;13.00;95.30
74488;DHT22;63019;51.080;13.642;2023-03-23T02:46:17;13.00;95.60
74488;DHT22;63019;51.080;13.642;2023-03-23T02:47:24;13.00;95.80
74488;DHT22;63019;51.080;13.642;2023-03-23T02:48:29;13.00;95.90
74488;DHT22;63019;51.080;13.642;2023-03-23T02:49:32;13.00;95.80
74488;DHT22;63019;51.080;13.642;2023-03-23T02:50:36;13.00;95.50
74488;DHT22;63019;51.080;13.642;2023-03-23T02:51:38;13.00;95.80
74488;DHT22;63019;51.080;13.642;2023-03-23T02:52:41;12.90;95.70
74488;DHT22;63019;51.080;13.642;2023-03-23T02:53:43;12.90;95.80
74488;DHT22;63019;51.080;13.642;2023-03-23T02:54:46;12.90;95.60
74488;DHT22;63019;51.080;13.642;2023-03-23T02:55:47;12.90;95.40
74488;DHT22;63019;51.080;13.642;2023-03-23T02:56:49;12.90;95.60
74488;DHT22;63019;51.080;13.642;2023-03-23T02:57:52;12.90;95.40
74488;DHT22;63019;51.080;13.642;2023-03-23T02:58:55;12.90;95.60
74488;DHT22;63019;51.080;13.642;2023-03-23T02:59:56;12.90;95.70
74488;DHT22;63019;51.080;13.642;2023-03-23T03:00:56;12.80;95.80
74488;DHT22;63019;51.080;13.642;2023-03-23T03:03:10;12.80;96.10
74488;DHT22;63019;51.080;13.642;2023-03-23T03:04:16;12.90;95.90
74488;DHT22;63019;51.080;13.642;2023-03-23T03:05:29;12.80;96.00
74488;DHT22;63019;51.080;13.642;2023-03-23T03:06:35;12.80;96.20
74488;DHT22;63019;51.080;13.642;2023-03-23T03:07:59;12.80;95.80
74488;DHT22;63019;51.080;13.642;2023-03-23T03:09:07;12.70;95.40
74488;DHT22;63019;51.080;13.642;2023-03-23T03:11:22;12.70;96.10
74488;DHT22;63019;51.080;13.642;2023-03-23T03:12:51;12.70;96.30
74488;DHT22;63019;51.080;13.642;2023-03-23T03:13:59;12.70;96.20
74488;DHT22;63019;51.080;13.642;2023-03-23T03:19:47;12.60;96.30
74488;DHT22;63019;51.080;13.642;2023-03-23T03:20:56;12.60;96.60
74488;DHT22;63019;51.080;13.642;2023-03-23T03:22:00;12.60;96.40
74488;DHT22;63019;51.080;13.642;2023-03-23T03:23:01;12.60;96.60
74488;DHT22;63019;51.080;13.642;2023-03-23T03:24:03;12.60;96.10
74488;DHT22;63019;51.080;13.642;2023-03-23T03:25:12;12.60;95.90
74488;DHT22;63019;51.080;13.642;2023-03-23T03:26:14;12.60;96.20
74488;DHT22;63019;51.080;13.642;2023-03-23T03:27:18;12.60;96.20
74488;DHT22;63019;51.080;13.642;2023-03-23T03:28:21;12.60;96.10
74488;DHT22;63019;51.080;13.642;2023-03-23T03:29:34;12.60;95.90
74488;DHT22;63019;51.080;13.642;2023-03-23T03:30:37;12.60;96.20
74488;DHT22;63019;51.080;13.642;2023-03-23T03:31:39;12.60;95.20
74488;DHT22;63019;51.080;13.642;2023-03-23T03:32:48;12.60;95.30
74488;DHT22;63019;51.080;13.642;2023-03-23T03:33:49;12.60;95.50
74488;DHT22;63019;51.080;13.642;2023-03-23T03:34:51;12.60;95.60
74488;DHT22;63019;51.080;13.642;2023-03-23T03:35:57;12.70;96.10
74488;DHT22;63019;51.080;13.642;2023-03-23T03:36:59;12.60;95.90
74488;DHT22;63019;51.080;13.642;2023-03-23T03:38:05;12.60;95.90
74488;DHT22;63019;51.080;13.642;2023-03-23T03:39:09;12.70;95.80
74488;DHT22;63019;51.080;13.642;2023-03-23T03:40:13;12.70;95.90
74488;DHT22;63019;51.080;13.642;2023-03-23T03:41:15;12.70;95.10
74488;DHT22;63019;51.080;13.642;2023-03-23T03:42:16;12.70;95.70
74488;DHT22;63019;51.080;13.642;2023-03-23T03:43:17;12.70;95.30
74488;DHT22;63019;51.080;13.642;2023-03-23T03:44:18;12.70;95.60
74488;DHT22;63019;51.080;13.642;2023-03-23T03:45:19;12.70;95.60
74488;DHT22;63019;51.080;13.642;2023-03-23T03:46:20;12.70;95.50
74488;DHT22;63019;51.080;13.642;2023-03-23T03:47:21;12.70;95.90
74488;DHT22;63019;51.080;13.642;2023-03-23T03:48:22;12.80;95.80
74488;DHT22;63019;51.080;13.642;2023-03-23T03:49:22;12.80;96.30
74488;DHT22;63019;51.080;13.642;2023-03-23T03:50:23;12.80;95.80
74488;DHT22;63019;51.080;13.642;2023-03-23T03:51:26;12.80;96.50
74488;DHT22;63019;51.080;13.642;2023-03-23T03:52:27;12.70;96.40
74488;DHT22;63019;51.080;13.642;2023-03-23T03:53:29;12.70;96.70
74488;DHT22;63019;51.080;13.642;2023-03-23T03:54:31;12.70;96.20
74488;DHT22;63019;51.080;13.642;2023-03-23T03:55:32;12.70;96.40
74488;DHT22;63019;51.080;13.642;2023-03-23T03:56:35;12.70;96.90
74488;DHT22;63019;51.080;13.642;2023-03-23T03:57:38;12.70;96.90
74488;DHT22;63019;51.080;13.642;2023-03-23T03:58:39;12.70;96.60
74488;DHT22;63019;51.080;13.642;2023-03-23T03:59:42;12.70;96.50
74488;DHT22;63019;51.080;13.642;2023-03-23T04:00:44;12.70;96.60
74488;DHT22;63019;51.080;13.642;2023-03-23T04:01:48;12.70;96.50
74488;DHT22;63019;51.080;13.642;2023-03-23T04:02:54;12.70;96.30
74488;DHT22;63019;51.080;13.642;2023-03-23T04:03:55;12.80;96.40
74488;DHT22;63019;51.080;13.642;2023-03-23T04:04:56;12.80;96.70
74488;DHT22;63019;51.080;13.642;2023-03-23T04:05:57;12.80;97.10
74488;DHT22;63019;51.080;13.642;2023-03-23T04:06:59;12.80;96.70
74488;DHT22;63019;51.080;13.642;2023-03-23T04:08:03;12.80;96.80
74488;DHT22;63019;51.080;13.642;2023-03-23T04:09:05;12.90;97.00
74488;DHT22;63019;51.080;13.642;2023-03-23T04:10:08;12.90;96.70
74488;DHT22;63019;51.080;13.642;2023-03-23T04:11:13;13.00;97.00
74488;DHT22;63019;51.080;13.642;2023-03-23T04:12:14;13.00;96.90
74488;DHT22;63019;51.080;13.642;2023-03-23T04:13:16;13.00;97.00
74488;DHT22;63019;51.080;13.642;2023-03-23T04:14:17;13.00;97.20
74488;DHT22;63019;51.080;13.642;2023-03-23T04:15:18;13.00;97.10
74488;DHT22;63019;51.080;13.642;2023-03-23T04:16:19;13.00;97.50
74488;DHT22;63019;51.080;13.642;2023-03-23T04:17:21;13.00;97.70
74488;DHT22;63019;51.080;13.642;2023-03-23T04:18:22;13.00;97.20
74488;DHT22;63019;51.080;13.642;2023-03-23T04:19:23;13.00;97.20
74488;DHT22;63019;51.080;13.642;2023-03-23T04:20:24;13.10;97.00
74488;DHT22;63019;51.080;13.642;2023-03-23T04:21:25;13.10;97.10
74488;DHT22;63019;51.080;13.642;2023-03-23T04:22:29;13.10;97.00
74488;DHT22;63019;51.080;13.642;2023-03-23T04:23:33;13.20;96.90
74488;DHT22;63019;51.080;13.642;2023-03-23T04:24:35;13.20;97.00
74488;DHT22;63019;51.080;13.642;2023-03-23T04:25:36;13.20;97.00
74488;DHT22;63019;51.080;13.642;2023-03-23T04:26:37;13.20;97.00
74488;DHT22;63019;51.080;13.642;2023-03-23T04:27:41;13.20;97.30
74488;DHT22;63019;51.080;13.642;2023-03-23T04:28:46;13.20;97.70
74488;DHT22;63019;51.080;13.642;2023-03-23T04:29:47;13.20;97.50
74488;DHT22;63019;51.080;13.642;2023-03-23T04:30:50;13.10;97.40
74488;DHT22;63019;51.080;13.642;2023-03-23T04:31:54;13.10;97.60
74488;DHT22;63019;51.080;13.642;2023-03-23T04:32:56;13.10;97.70
74488;DHT22;63019;51.080;13.642;2023-03-23T04:33:57;13.10;97.40
74488;DHT22;63019;51.080;13.642;2023-03-23T04:35:00;13.10;97.30
74488;DHT22;63019;51.080;13.642;2023-03-23T04:36:01;13.00;97.90
74488;DHT22;63019;51.080;13.642;2023-03-23T04:37:02;13.00;97.40
74488;DHT22;63019;51.080;13.642;2023-03-23T04:38:03;13.00;97.20
74488;DHT22;63019;51.080;13.642;2023-03-23T04:39:04;13.00;97.50
74488;DHT22;63019;51.080;13.642;2023-03-23T04:40:07;13.00;97.10
74488;DHT22;63019;51.080;13.642;2023-03-23T04:41:11;13.10;96.40
74488;DHT22;63019;51.080;13.642;2023-03-23T04:42:12;13.10;96.70
74488;DHT22;63019;51.080;13.642;2023-03-23T04:43:14;13.10;96.70
74488;DHT22;63019;51.080;13.642;2023-03-23T04:44:15;13.10;96.70
74488;DHT22;63019;51.080;13.642;2023-03-23T04:45:21;13.10;96.00
74488;DHT22;63019;51.080;13.642;2023-03-23T04:46:22;13.10;96.60
74488;DHT22;63019;51.080;13.642;2023-03-23T04:47:24;13.10;97.20
74488;DHT22;63019;51.080;13.642;2023-03-23T04:48:27;13.10;97.00
74488;DHT22;63019;51.080;13.642;2023-03-23T04:49:28;13.10;97.10
74488;DHT22;63019;51.080;13.642;2023-03-23T04:50:31;13.10;97.00
74488;DHT22;63019;51.080;13.642;2023-03-23T04:51:33;13.10;96.90
74488;DHT22;63019;51.080;13.642;2023-03-23T04:52:37;13.10;96.40
74488;DHT22;63019;51.080;13.642;2023-03-23T04:53:38;13.10;96.80
74488;DHT22;63019;51.080;13.642;2023-03-23T04:54:39;13.10;96.60
74488;DHT22;63019;51.080;13.642;2023-03-23T04:55:40;13.10;96.70
74488;DHT22;63019;51.080;13.642;2023-03-23T04:56:41;13.10;96.90
74488;DHT22;63019;51.080;13.642;2023-03-23T04:57:42;13.10;97.00
74488;DHT22;63019;51.080;13.642;2023-03-23T04:58:44;13.10;96.90
74488;DHT22;63019;51.080;13.642;2023-03-23T04:59:45;13.10;97.20
74488;DHT22;63019;51.080;13.642;2023-03-23T05:00:46;13.10;97.10
74488;DHT22;63019;51.080;13.642;2023-03-23T05:01:49;13.00;97.20
74488;DHT22;63019;51.080;13.642;2023-03-23T05:02:50;13.00;97.30
74488;DHT22;63019;51.080;13.642;2023-03-23T05:03:51;13.00;97.50
74488;DHT22;63019;51.080;13.642;2023-03-23T05:04:52;13.00;97.40
74488;DHT22;63019;51.080;13.642;2023-03-23T05:05:53;13.00;97.20
74488;DHT22;63019;51.080;13.642;2023-03-23T05:06:54;13.00;97.40
74488;DHT22;63019;51.080;13.642;2023-03-23T05:07:55;13.00;97.30
74488;DHT22;63019;51.080;13.642;2023-03-23T05:08:56;13.00;97.40
74488;DHT22;63019;51.080;13.642;2023-03-23T05:09:57;13.00;97.50
74488;DHT22;63019;51.080;13.642;2023-03-23T05:10:58;13.00;97.50
74488;DHT22;63019;51.080;13.642;2023-03-23T05:12:04;13.00;97.50
74488;DHT22;63019;51.080;13.642;2023-03-23T05:13:05;13.00;97.30
74488;DHT22;63019;51.080;13.642;2023-03-23T05:14:06;12.90;97.70
74488;DHT22;63019;51.080;13.642;2023-03-23T05:15:09;12.90;97.70
74488;DHT22;63019;51.080;13.642;2023-03-23T05:16:10;13.00;97.50
74488;DHT22;63019;51.080;13.642;2023-03-23T05:17:10;13.00;97.80
74488;DHT22;63019;51.080;13.642;2023-03-23T05:18:13;13.00;97.50
74488;DHT22;63019;51.080;13.642;2023-03-23T05:19:14;13.00;97.40
74488;DHT22;63019;51.080;13.642;2023-03-23T05:20:16;13.00;97.30
74488;DHT22;63019;51.080;13.642;2023-03-23T05:21:20;13.00;97.60
74488;DHT22;63019;51.080;13.642;2023-03-23T05:22:21;13.00;97.70
74488;DHT22;63019;51.080;13.642;2023-03-23T05:23:23;13.10;97.80
74488;DHT22;63019;51.080;13.642;2023-03-23T05:24:26;13.00;97.90
74488;DHT22;63019;51.080;13.642;2023-03-23T05:25:31;13.00;97.60
74488;DHT22;63019;51.080;13.642;2023-03-23T05:26:36;13.00;97.50
74488;DHT22;63019;51.080;13.642;2023-03-23T05:27:37;13.00;97.90
74488;DHT22;63019;51.080;13.642;2023-03-23T05:28:38;13.00;97.90
74488;DHT22;63019;51.080;13.642;2023-03-23T05:29:42;13.00;97.90
74488;DHT22;63019;51.080;13.642;2023-03-23T05:30:42;13.00;97.90
74488;DHT22;63019;51.080;13.642;2023-03-23T05:31:44;13.00;98.20
74488;DHT22;63019;51.080;13.642;2023-03-23T05:32:45;12.90;98.10
74488;DHT22;63019;51.080;13.642;2023-03-23T05:33:51;12.90;98.00
74488;DHT22;63019;51.080;13.642;2023-03-23T05:34:52;12.90;98.20
74488;DHT22;63019;51.080;13.642;2023-03-23T05:35:53;12.90;98.40
74488;DHT22;63019;51.080;13.642;2023-03-23T05:36:55;13.00;98.40
74488;DHT22;63019;51.080;13.642;2023-03-23T05:37:55;13.00;98.30
74488;DHT22;63019;51.080;13.642;2023-03-23T05:38:57;13.00;98.30
74488;DHT22;63019;51.080;13.642;2023-03-23T05:40:00;13.00;98.70
74488;DHT22;63019;51.080;13.642;2023-03-23T05:41:06;13.00;98.30
74488;DHT22;63019;51.080;13.642;2023-03-23T05:42:07;13.00;98.00
74488;DHT22;63019;51.080;13.642;2023-03-23T05:43:09;13.00;98.00
74488;DHT22;63019;51.080;13.642;2023-03-23T05:44:10;13.10;98.20
74488;DHT22;63019;51.080;13.642;2023-03-23T05:45:11;13.10;98.30
74488;DHT22;63019;51.080;13.642;2023-03-23T05:46:12;13.00;98.50
74488;DHT22;63019;51.080;13.642;2023-03-23T05:47:13;13.00;98.40
74488;DHT22;63019;51.080;13.642;2023-03-23T05:48:14;13.00;98.40
74488;DHT22;63019;51.080;13.642;2023-03-23T05:49:15;13.00;98.40
74488;DHT22;63019;51.080;13.642;2023-03-23T05:50:17;13.00;98.30
74488;DHT22;63019;51.080;13.642;2023-03-23T05:51:18;13.10;98.60
74488;DHT22;63019;51.080;13.642;2023-03-23T05:52:19;13.00;98.20
74488;DHT22;63019;51.080;13.642;2023-03-23T05:53:20;13.10;97.70
74488;DHT22;63019;51.080;13.642;2023-03-23T05:54:21;13.10;97.80
74488;DHT22;63019;51.080;13.642;2023-03-23T05:55:22;13.10;97.60
74488;DHT22;63019;51.080;13.642;2023-03-23T05:56:23;13.10;98.20
74488;DHT22;63019;51.080;13.642;2023-03-23T05:57:23;13.10;98.20
74488;DHT22;63019;51.080;13.642;2023-03-23T05:58:24;13.20;97.40
74488;DHT22;63019;51.080;13.642;2023-03-23T05:59:25;13.20;97.00
74488;DHT22;63019;51.080;13.642;2023-03-23T06:00:26;13.20;97.00
74488;DHT22;63019;51.080;13.642;2023-03-23T06:01:29;13.20;97.10
74488;DHT22;63019;51.080;13.642;2023-03-23T06:02:30;13.30;95.90
74488;DHT22;63019;51.080;13.642;2023-03-23T06:03:31;13.50;95.40
74488;DHT22;63019;51.080;13.642;2023-03-23T06:04:32;13.60;94.90
74488;DHT22;63019;51.080;13.642;2023-03-23T06:05:34;13.70;94.50
74488;DHT22;63019;51.080;13.642;2023-03-23T06:06:34;13.80;94.10
74488;DHT22;63019;51.080;13.642;2023-03-23T06:07:35;13.90;93.80
74488;DHT22;63019;51.080;13.642;2023-03-23T06:08:38;14.00;93.30
74488;DHT22;63019;51.080;13.642;2023-03-23T06:09:39;14.10;93.70
74488;DHT22;63019;51.080;13.642;2023-03-23T06:10:40;14.20;92.80
74488;DHT22;63019;51.080;13.642;2023-03-23T06:11:41;14.20;92.70
74488;DHT22;63019;51.080;13.642;2023-03-23T06:12:42;14.20;92.60
74488;DHT22;63019;51.080;13.642;2023-03-23T06:13:42;14.30;92.90
74488;DHT22;63019;51.080;13.642;2023-03-23T06:14:44;14.30;92.30
74488;DHT22;63019;51.080;13.642;2023-03-23T06:15:45;14.30;92.30
74488;DHT22;63019;51.080;13.642;2023-03-23T06:16:46;14.30;92.20
74488;DHT22;63019;51.080;13.642;2023-03-23T06:17:47;14.30;92.20
74488;DHT22;63019;51.080;13.642;2023-03-23T06:18:48;14.30;92.10
74488;DHT22;63019;51.080;13.642;2023-03-23T06:19:49;14.30;92.00
74488;DHT22;63019;51.080;13.642;2023-03-23T06:20:51;14.40;92.10
74488;DHT22;63019;51.080;13.642;2023-03-23T06:21:54;14.40;91.80
74488;DHT22;63019;51.080;13.642;2023-03-23T06:22:55;14.40;92.10
74488;DHT22;63019;51.080;13.642;2023-03-23T06:23:57;14.40;91.90
74488;DHT22;63019;51.080;13.642;2023-03-23T06:24:59;14.50;91.70
74488;DHT22;63019;51.080;13.642;2023-03-23T06:26:02;14.50;91.60
74488;DHT22;63019;51.080;13.642;2023-03-23T06:27:04;14.50;91.40
74488;DHT22;63019;51.080;13.642;2023-03-23T06:28:04;14.60;91.40
74488;DHT22;63019;51.080;13.642;2023-03-23T06:29:06;14.60;91.30
74488;DHT22;63019;51.080;13.642;2023-03-23T06:30:11;14.60;91.20
74488;DHT22;63019;51.080;13.642;2023-03-23T06:31:12;14.60;91.20
74488;DHT22;63019;51.080;13.642;2023-03-23T06:32:15;14.60;91.20
74488;DHT22;63019;51.080;13.642;2023-03-23T06:33:15;14.60;91.60
74488;DHT22;63019;51.080;13.642;2023-03-23T06:34:17;14.60;91.30
74488;DHT22;63019;51.080;13.642;2023-03-23T06:35:19;14.60;91.20
74488;DHT22;63019;51.080;13.642;2023-03-23T06:36:19;14.60;91.10
74488;DHT22;63019;51.080;13.642;2023-03-23T06:37:20;14.60;91.20
74488;DHT22;63019;51.080;13.642;2023-03-23T06:38:21;14.60;91.20
74488;DHT22;63019;51.080;13.642;2023-03-23T06:39:22;14.60;91.20
74488;DHT22;63019;51.080;13.642;2023-03-23T06:40:23;14.60;91.70
74488;DHT22;63019;51.080;13.642;2023-03-23T06:41:23;14.60;91.70
74488;DHT22;63019;51.080;13.642;2023-03-23T06:42:24;14.60;91.70
74488;DHT22;63019;51.080;13.642;2023-03-23T06:43:25;14.60;91.30
74488;DHT22;63019;51.080;13.642;2023-03-23T06:44:26;14.60;91.40
74488;DHT22;63019;51.080;13.642;2023-03-23T06:45:26;14.60;91.70
74488;DHT22;63019;51.080;13.642;2023-03-23T06:46:27;14.60;91.50
74488;DHT22;63019;51.080;13.642;2023-03-23T06:47:28;14.60;91.60
74488;DHT22;63019;51.080;13.642;2023-03-23T06:48:33;14.60;91.60
74488;DHT22;63019;51.080;13.642;2023-03-23T06:49:34;14.60;91.50
74488;DHT22;63019;51.080;13.642;2023-03-23T06:50:35;14.60;91.70
74488;DHT22;63019;51.080;13.642;2023-03-23T06:51:36;14.70;91.70
74488;DHT22;63019;51.080;13.642;2023-03-23T06:52:37;14.70;91.70
74488;DHT22;63019;51.080;13.642;2023-03-23T06:53:38;14.70;91.20